createdAt,value
2023-04-01T00:00:35.417Z,89.24
2023-04-01T00:05:39.668Z,89.14
2023-04-01T00:10:42.539Z,88.54
2023-04-01T00:15:45.882Z,89.10
2023-04-01T00:20:51.775Z,88.37
2023-04-01T00:25:54.546Z,87.90
2023-04-01T00:30:57.321Z,88.48
2023-04-01T00:36:10.783Z,87.87
2023-04-01T00:41:16.519Z,87.91
2023-04-01T00:46:19.853Z,87.15
2023-04-01T00:51:27.999Z,86.98
2023-04-01T00:56:34.867Z,86.82
2023-04-01T01:01:38.028Z,87.57
2023-04-01T01:06:53.242Z,88.10
2023-04-01T01:12:03.835Z,87.81
2023-04-01T01:17:16.045Z,87.65
2023-04-01T01:22:36.790Z,86.81
2023-04-01T01:27:42.658Z,86.84
2023-04-01T01:33:13.966Z,86.51
2023-04-01T01:38:19.911Z,86.49
2023-04-01T01:43:34.443Z,86.38
2023-04-01T01:48:38.216Z,85.82
2023-04-01T01:53:42.360Z,85.51
2023-04-01T01:58:49.546Z,85.54
2023-04-01T02:03:57.480Z,85.65
2023-04-01T02:09:04.739Z,85.13
2023-04-01T02:14:12.671Z,85.24
2023-04-01T02:19:23.399Z,85.55
2023-04-01T02:24:32.559Z,85.78
2023-04-01T02:29:35.493Z,86.34
2023-04-01T02:34:38.918Z,87.20
2023-04-01T02:39:43.660Z,87.54
2023-04-01T02:44:46.732Z,86.96
2023-04-01T02:49:50.340Z,87.39
2023-04-01T02:54:54.930Z,86.75
2023-04-01T02:59:57.827Z,87.10
2023-04-01T03:05:00.606Z,86.79
2023-04-01T03:10:05.063Z,86.70
2023-04-01T03:15:10.600Z,86.22
2023-04-01T03:20:15.970Z,86.47
2023-04-01T03:25:20.480Z,86.05
2023-04-01T03:30:23.684Z,86.12
2023-04-01T03:35:27.529Z,86.14
2023-04-01T03:40:31.708Z,86.33
2023-04-01T03:45:34.804Z,86.70
2023-04-01T03:50:37.840Z,86.30
2023-04-01T03:55:42.020Z,86.53
2023-04-01T04:00:44.852Z,86.46
2023-04-01T04:05:49.459Z,86.29
2023-04-01T04:10:58.246Z,86.47
2023-04-01T04:16:01.644Z,86.52
2023-04-01T04:21:06.128Z,86.63
2023-04-01T04:26:12.400Z,86.59
2023-04-01T04:31:20.907Z,86.72
2023-04-01T04:36:24.509Z,86.64
2023-04-01T04:41:29.967Z,87.06
2023-04-01T04:46:32.929Z,92.78
2023-04-01T04:51:47.689Z,92.08
2023-04-01T04:56:54.835Z,87.69
2023-04-01T05:01:59.266Z,87.77
2023-04-01T05:07:02.035Z,88.07
2023-04-01T05:12:07.017Z,88.36
2023-04-01T05:17:41.931Z,88.39
2023-04-01T05:22:46.308Z,88.78
2023-04-01T05:27:50.552Z,88.49
2023-04-01T05:32:53.470Z,88.86
2023-04-01T05:37:56.564Z,88.76
2023-04-01T05:43:01.405Z,88.82
2023-04-01T05:48:04.547Z,88.78
2023-04-01T05:53:14.242Z,89.09
2023-04-01T05:58:20.782Z,88.42
2023-04-01T06:03:24.532Z,88.86
2023-04-01T06:08:27.740Z,88.56
2023-04-01T06:13:50.057Z,88.26
2023-04-01T06:19:02.845Z,88.31
2023-04-01T06:24:24.314Z,88.53
2023-04-01T06:29:45.363Z,88.40
2023-04-01T06:35:14.531Z,88.53
2023-04-01T06:40:53.558Z,87.89
2023-04-01T06:46:06.781Z,88.27
2023-04-01T06:51:37.256Z,88.93
2023-04-01T06:57:04.504Z,89.10
2023-04-01T07:02:24.807Z,88.71
2023-04-01T07:07:35.601Z,87.28
2023-04-01T07:12:48.231Z,88.00
2023-04-01T07:18:32.431Z,88.72
2023-04-01T07:23:42.986Z,88.53
2023-04-01T07:28:59.336Z,88.87
2023-04-01T07:34:25.194Z,88.50
2023-04-01T07:39:37.262Z,91.48
2023-04-01T07:45:00.798Z,90.82
2023-04-01T07:50:15.713Z,89.65
2023-04-01T07:55:24.909Z,89.55
2023-04-01T08:00:35.438Z,89.18
2023-04-01T08:05:57.814Z,89.74
2023-04-01T08:11:11.884Z,89.64
2023-04-01T08:16:40.618Z,89.82
2023-04-01T08:21:51.758Z,89.73
2023-04-01T08:26:59.274Z,89.72
2023-04-01T08:32:08.694Z,89.89
2023-04-01T08:37:19.521Z,90.40
2023-04-01T08:42:53.527Z,90.01
2023-04-01T08:48:19.363Z,89.77
2023-04-01T08:53:44.012Z,90.22
2023-04-01T08:59:08.370Z,89.89
2023-04-01T09:04:33.802Z,89.51
2023-04-01T09:10:07.883Z,89.85
2023-04-01T09:15:54.597Z,89.94
2023-04-01T09:21:22.492Z,88.73
2023-04-01T09:26:51.349Z,88.04
2023-04-01T09:32:18.151Z,87.67
2023-04-01T09:37:36.534Z,86.78
2023-04-01T09:42:57.796Z,87.05
2023-04-01T09:48:18.166Z,85.59
2023-04-01T09:53:36.865Z,84.89
2023-04-01T09:59:11.744Z,81.17
2023-04-01T10:05:00.649Z,80.93
2023-04-01T10:10:36.422Z,81.18
2023-04-01T10:16:06.141Z,83.39
2023-04-01T10:21:38.894Z,80.92
2023-04-01T10:27:04.309Z,80.33
2023-04-01T10:32:47.722Z,80.18
2023-04-01T10:38:28.465Z,82.47
2023-04-01T10:44:04.667Z,85.59
2023-04-01T10:49:46.454Z,87.23
2023-04-01T10:55:00.560Z,86.95
2023-04-01T11:01:09.780Z,87.39
2023-04-01T11:07:22.904Z,84.33
2023-04-01T11:13:02.280Z,83.66
2023-04-01T11:18:59.727Z,82.84
2023-04-01T11:24:26.836Z,80.57
2023-04-01T11:30:09.073Z,81.29
2023-04-01T11:35:42.553Z,84.12
2023-04-01T11:40:53.529Z,84.94
2023-04-01T11:46:25.741Z,86.38
2023-04-01T11:51:41.684Z,87.23
2023-04-01T11:57:02.283Z,84.51
2023-04-01T12:02:14.843Z,86.18
2023-04-01T12:07:24.820Z,81.81
2023-04-01T12:12:34.811Z,81.49
2023-04-01T12:17:46.453Z,79.67
2023-04-01T12:22:55.594Z,80.29
2023-04-01T12:28:16.551Z,78.00
2023-04-01T12:33:34.135Z,76.94
2023-04-01T12:38:46.673Z,77.50
2023-04-01T12:44:15.141Z,81.24
2023-04-01T12:49:36.372Z,77.37
2023-04-01T12:55:23.179Z,75.89
2023-04-01T13:00:44.522Z,77.10
2023-04-01T13:06:20.936Z,73.63
2023-04-01T13:11:41.425Z,73.95
2023-04-01T13:16:54.373Z,73.03
2023-04-01T13:22:04.428Z,74.72
2023-04-01T13:27:16.739Z,70.73
2023-04-01T13:32:43.242Z,70.82
2023-04-01T13:37:59.612Z,69.65
2023-04-01T13:43:06.110Z,70.38
2023-04-01T13:48:32.912Z,67.85
2023-04-01T13:54:05.921Z,69.79
2023-04-01T13:59:38.207Z,71.80
2023-04-01T14:04:51.924Z,70.32
2023-04-01T14:10:08.031Z,74.27
2023-04-01T14:15:29.489Z,72.26
2023-04-01T14:20:42.403Z,73.24
2023-04-01T14:26:09.670Z,75.79
2023-04-01T14:31:36.573Z,74.50
2023-04-01T14:37:03.359Z,75.54
2023-04-01T14:42:25.973Z,77.14
2023-04-01T14:47:52.759Z,76.70
2023-04-01T14:53:01.721Z,75.88
2023-04-01T14:58:12.934Z,76.95
2023-04-01T15:03:21.120Z,77.08
2023-04-01T15:08:29.583Z,78.82
2023-04-01T15:13:53.261Z,80.10
2023-04-01T15:19:07.387Z,79.70
2023-04-01T15:24:22.508Z,80.98
2023-04-01T15:29:41.709Z,80.46
2023-04-01T15:34:51.978Z,80.70
2023-04-01T15:40:04.276Z,82.04
2023-04-01T15:45:18.715Z,80.38
2023-04-01T15:50:56.478Z,83.53
2023-04-01T15:56:12.900Z,85.01
2023-04-01T16:01:26.338Z,84.97
2023-04-01T16:06:54.631Z,85.17
2023-04-01T16:12:07.111Z,85.83
2023-04-01T16:17:35.076Z,85.83
2023-04-01T16:22:41.934Z,86.01
2023-04-01T16:27:54.826Z,85.88
2023-04-01T16:33:05.928Z,85.58
2023-04-01T16:38:17.739Z,85.22
2023-04-01T16:43:30.355Z,84.72
2023-04-01T16:48:51.812Z,84.70
2023-04-01T16:54:07.687Z,85.41
2023-04-01T16:59:23.239Z,85.21
2023-04-01T17:04:35.341Z,85.09
2023-04-01T17:09:51.985Z,84.80
2023-04-01T17:15:05.834Z,84.80
2023-04-01T17:20:36.936Z,84.86
2023-04-01T17:25:59.981Z,85.38
2023-04-01T17:31:12.788Z,85.45
2023-04-01T17:36:27.080Z,85.07
2023-04-01T17:41:38.620Z,84.95
2023-04-01T17:47:02.205Z,85.06
2023-04-01T17:52:17.582Z,85.26
2023-04-01T17:57:41.957Z,85.08
2023-04-01T18:02:58.357Z,85.21
2023-04-01T18:08:14.519Z,85.21
2023-04-01T18:13:29.081Z,85.12
2023-04-01T18:18:52.120Z,85.52
2023-04-01T18:24:02.581Z,85.44
2023-04-01T18:29:18.946Z,85.30
2023-04-01T18:34:42.033Z,86.13
2023-04-01T18:39:50.940Z,86.00
2023-04-01T18:44:58.395Z,85.45
2023-04-01T18:50:15.931Z,86.12
2023-04-01T18:55:32.539Z,85.27
2023-04-01T19:00:41.505Z,85.74
2023-04-01T19:05:49.272Z,85.63
2023-04-01T19:11:04.242Z,85.98
2023-04-01T19:16:16.246Z,85.17
2023-04-01T19:21:23.436Z,85.26
2023-04-01T19:26:31.951Z,85.10
2023-04-01T19:31:50.282Z,85.60
2023-04-01T19:36:58.659Z,85.77
2023-04-01T19:42:13.705Z,84.90
2023-04-01T19:47:22.874Z,85.43
2023-04-01T19:52:33.719Z,85.02
2023-04-01T19:57:44.014Z,85.03
2023-04-01T20:02:58.829Z,85.05
2023-04-01T20:08:13.551Z,84.88
2023-04-01T20:13:27.408Z,84.73
2023-04-01T20:18:40.268Z,84.83
2023-04-01T20:23:49.606Z,84.81
2023-04-01T20:29:12.069Z,84.71
2023-04-01T20:34:32.150Z,84.38
2023-04-01T20:40:04.716Z,84.40
2023-04-01T20:45:24.606Z,84.09
2023-04-01T20:50:31.685Z,83.92
2023-04-01T20:56:21.602Z,83.42
2023-04-01T21:01:37.525Z,83.09
2023-04-01T21:06:54.643Z,83.72
2023-04-01T21:12:11.854Z,83.93
2023-04-01T21:17:24.680Z,83.54
2023-04-01T21:23:03.241Z,83.89
2023-04-01T21:28:22.038Z,83.42
2023-04-01T21:33:39.587Z,83.43
2023-04-01T21:38:54.918Z,83.54
2023-04-01T21:44:34.838Z,83.51
2023-04-01T21:50:05.239Z,83.78
2023-04-01T21:56:01.035Z,83.89
2023-04-01T22:01:23.856Z,83.60
2023-04-01T22:06:35.686Z,83.53
2023-04-01T22:11:50.406Z,83.35
2023-04-01T22:16:58.952Z,83.18
2023-04-01T22:22:10.392Z,82.67
2023-04-01T22:27:20.558Z,82.17
2023-04-01T22:32:30.395Z,81.94
2023-04-01T22:37:39.412Z,81.77
2023-04-01T22:42:45.545Z,82.01
2023-04-01T22:48:02.312Z,82.40
2023-04-01T22:53:16.124Z,82.10
2023-04-01T22:58:23.742Z,82.17
2023-04-01T23:03:32.290Z,82.62
2023-04-01T23:08:57.748Z,83.02
2023-04-01T23:14:19.430Z,82.77
2023-04-01T23:19:28.926Z,83.13
2023-04-01T23:24:37.320Z,83.67
2023-04-01T23:29:43.599Z,84.01
2023-04-01T23:34:51.452Z,83.89
2023-04-01T23:39:56.188Z,84.09
2023-04-01T23:45:01.523Z,84.26
2023-04-01T23:50:12.825Z,84.25
2023-04-01T23:55:19.939Z,84.55
